Time;durP1;ratioP1;P1;durP2;ratioP2;P2;SDS_P1;SDS_P2;PMS_P1;PMS_P2;Temp;Humidity;BMP_temperature;BMP_pressure;BME280_temperature;BME280_humidity;BME280_pressure;Samples;Min_cycle;Max_cycle;Signal;HPM_P1;HPM_P2
2023/04/30 00:02:07;;;;;;;7.72;4.15;;;;;;;10.94;61.17;99132.25;4936734;29;20487;-86
2023/04/30 00:04:32;;;;;;;12.30;4.18;;;;;;;10.87;61.36;99129.84;4904800;29;20059;-85
2023/04/30 00:06:58;;;;;;;6.60;4.00;;;;;;;10.79;61.79;99117.78;4920923;29;20094;-85
2023/04/30 00:09:23;;;;;;;8.45;4.82;;;;;;;10.90;61.99;99137.38;4916325;29;20043;-86
2023/04/30 00:11:48;;;;;;;7.85;4.65;;;;;;;10.78;62.41;99128.81;4920172;29;20099;-86
2023/04/30 00:14:14;;;;;;;8.10;5.45;;;;;;;10.67;62.36;99122.66;4904449;29;20075;-86
2023/04/30 00:16:40;;;;;;;13.05;5.18;;;;;;;10.70;62.43;99130.97;4903687;29;20044;-86
2023/04/30 00:19:05;;;;;;;7.88;4.88;;;;;;;10.60;62.79;99116.75;4904418;29;20124;-86
2023/04/30 00:21:31;;;;;;;6.28;4.07;;;;;;;10.66;62.16;99121.03;4912455;29;20494;-86
2023/04/30 00:23:59;;;;;;;5.97;4.40;;;;;;;10.62;62.53;99118.09;4904637;29;20041;-86
2023/04/30 00:26:25;;;;;;;6.10;3.67;;;;;;;10.68;62.10;99110.78;4920182;29;20036;-86
2023/04/30 00:28:50;;;;;;;6.03;4.28;;;;;;;10.61;63.21;99119.19;4904871;29;20035;-86
2023/04/30 00:31:15;;;;;;;4.80;3.88;;;;;;;10.67;63.39;99123.47;4910726;29;20062;-86
2023/04/30 00:33:41;;;;;;;7.47;4.47;;;;;;;10.54;63.66;99118.66;4909271;29;20499;-86
2023/04/30 00:36:06;;;;;;;8.38;4.47;;;;;;;10.36;64.71;99119.25;4904210;29;20036;-87
2023/04/30 00:38:32;;;;;;;9.65;5.68;;;;;;;10.47;63.99;99110.06;4909008;29;20074;-87
2023/04/30 00:40:57;;;;;;;8.30;6.00;;;;;;;10.42;64.10;99105.50;4915047;29;20059;-87
2023/04/30 00:43:23;;;;;;;6.40;4.60;;;;;;;10.40;63.31;99114.94;4906623;29;20519;-87
2023/04/30 00:45:48;;;;;;;9.38;5.15;;;;;;;10.44;64.03;99122.19;4904182;29;20079;-88
2023/04/30 00:48:14;;;;;;;8.77;4.82;;;;;;;10.50;63.51;99112.22;4904849;29;20044;-86
2023/04/30 00:50:40;;;;;;;11.48;4.80;;;;;;;10.45;63.79;99112.22;4904975;29;20039;-87
2023/04/30 00:53:05;;;;;;;11.32;5.57;;;;;;;10.42;63.92;99102.03;4904393;29;20043;-87
2023/04/30 00:55:31;;;;;;;9.35;4.60;;;;;;;10.37;63.98;99102.03;4905342;29;20039;-86
2023/04/30 00:57:57;;;;;;;7.72;4.70;;;;;;;10.29;64.01;99106.91;4904832;29;20975;-86
2023/04/30 01:00:22;;;;;;;8.70;4.13;;;;;;;10.31;63.84;99096.66;4905038;29;20106;-87
2023/04/30 01:02:49;;;;;;;5.72;3.95;;;;;;;10.23;64.41;99109.81;4905894;29;20135;-85
2023/04/30 01:05:14;;;;;;;8.70;4.65;;;;;;;10.16;63.99;99099.34;4923724;29;20053;-86
2023/04/30 01:07:45;;;;;;;11.35;4.90;;;;;;;10.11;64.44;99094.78;4923652;29;20413;-86
2023/04/30 01:10:12;;;;;;;7.13;4.10;;;;;;;10.04;64.44;99099.66;4924495;29;20043;-86
2023/04/30 01:12:56;;;;;;;11.63;3.72;;;;;;;10.03;64.08;99108.00;4942315;29;20042;-86
2023/04/30 01:15:27;;;;;;;5.95;3.53;;;;;;;9.97;64.18;99111.75;4960301;29;20042;-86
2023/04/30 01:18:05;;;;;;;8.07;3.85;;;;;;;9.93;64.81;99100.72;4943012;29;20524;-86
2023/04/30 01:20:30;;;;;;;7.30;3.53;;;;;;;9.78;65.27;99096.19;4942563;29;20098;-87
2023/04/30 01:23:33;;;;;;;9.60;3.90;;;;;;;9.83;64.79;99114.19;4926201;29;20446;-86
2023/04/30 01:26:01;;;;;;;;;;;;;;;9.75;65.11;99107.44;4958889;29;20039;-86
2023/04/30 01:28:27;;;;;;;6.15;3.65;;;;;;;9.60;65.70;99100.19;4943328;29;19975;-86
2023/04/30 01:30:53;;;;;;;6.20;3.95;;;;;;;9.46;66.80;99093.75;4927249;29;20060;-86
2023/04/30 01:33:18;;;;;;;6.88;4.28;;;;;;;9.49;66.67;99093.22;4926393;29;20182;-86
2023/04/30 01:35:56;;;;;;;7.97;5.18;;;;;;;9.60;66.37;99107.47;4926263;29;20035;-86
2023/04/30 01:38:40;;;;;;;8.13;3.22;;;;;;;9.50;67.16;99098.34;4958631;29;20047;-87
2023/04/30 01:41:46;;;;;;;6.80;4.00;;;;;;;9.38;67.17;99100.47;4958616;29;20421;-86
2023/04/30 01:44:32;;;;;;;5.82;3.33;;;;;;;9.37;67.51;99104.22;4942326;29;20043;-86
2023/04/30 01:47:04;;;;;;;6.55;4.72;;;;;;;9.31;67.40;99095.34;4941632;29;20047;-86
2023/04/30 01:49:40;;;;;;;8.13;4.20;;;;;;;9.23;68.05;99093.19;4926648;29;20039;-86
2023/04/30 01:52:15;;;;;;;6.82;4.72;;;;;;;9.25;67.65;99091.03;4942018;29;20039;-86
2023/04/30 01:54:45;;;;;;;5.63;4.13;;;;;;;9.27;67.34;99091.56;4926532;29;20018;-87
2023/04/30 01:57:15;;;;;;;7.65;4.85;;;;;;;9.17;68.16;99080.00;4926233;29;20054;-86
2023/04/30 01:59:40;;;;;;;8.75;5.45;;;;;;;9.26;68.08;99089.97;4926606;29;20078;-86
2023/04/30 02:02:06;;;;;;;7.30;5.47;;;;;;;9.17;68.20;99096.13;4928680;29;20421;-86
2023/04/30 02:04:31;;;;;;;7.25;5.03;;;;;;;9.27;67.94;99091.56;4925419;29;20042;-86
2023/04/30 02:06:57;;;;;;;11.05;5.55;;;;;;;9.38;67.29;99091.59;4925765;29;20039;-86
2023/04/30 02:09:23;;;;;;;9.85;4.60;;;;;;;9.33;67.34;99081.66;4941837;29;20035;-86
2023/04/30 02:11:49;;;;;;;7.32;4.55;;;;;;;9.30;67.75;99084.88;4926466;29;20042;-85
2023/04/30 02:14:14;;;;;;;5.38;3.72;;;;;;;9.27;67.71;99096.16;4941792;29;20114;-86
2023/04/30 02:16:40;;;;;;;4.68;3.50;;;;;;;9.12;68.22;99083.50;4925952;29;20031;-86
2023/04/30 02:19:05;;;;;;;6.65;3.65;;;;;;;9.07;68.63;99092.34;4925565;29;20031;-86
2023/04/30 02:21:31;;;;;;;5.93;3.35;;;;;;;8.95;68.16;99088.31;4925263;29;20035;-86
2023/04/30 02:23:56;;;;;;;5.45;3.90;;;;;;;8.95;68.70;99099.84;4924971;29;20569;-86
2023/04/30 02:26:22;;;;;;;6.63;3.60;;;;;;;8.85;68.44;99094.44;4927232;29;20505;-86
2023/04/30 02:28:47;;;;;;;9.38;3.60;;;;;;;8.76;69.22;99090.63;4933685;29;20039;-86
2023/04/30 02:31:13;;;;;;;8.55;4.30;;;;;;;8.83;69.24;99099.28;4925044;29;20042;-86
2023/04/30 02:33:38;;;;;;;4.95;3.63;;;;;;;8.68;69.70;99090.09;4934063;29;20482;-86
2023/04/30 02:36:04;;;;;;;6.20;3.88;;;;;;;8.69;69.63;99091.72;4925011;29;20461;-86
2023/04/30 02:38:29;;;;;;;6.50;4.15;;;;;;;8.65;69.69;99085.25;4925376;29;20043;-86
2023/04/30 02:40:55;;;;;;;5.90;3.70;;;;;;;8.59;69.44;99083.63;4931075;29;20035;-86
2023/04/30 02:43:20;;;;;;;6.53;4.07;;;;;;;8.63;68.76;99083.88;4926004;29;20031;-86
2023/04/30 02:45:46;;;;;;;5.38;3.90;;;;;;;8.46;69.07;99084.09;4925157;29;20026;-86
2023/04/30 02:48:11;;;;;;;8.10;4.13;;;;;;;8.45;69.02;99093.22;4924186;29;20061;-86
2023/04/30 02:50:37;;;;;;;11.55;3.72;;;;;;;8.48;68.87;99087.31;4932786;29;20035;-86
2023/04/30 02:53:03;;;;;;;5.70;3.75;;;;;;;8.21;69.06;99065.97;4923872;29;20055;-86
2023/04/30 02:55:29;;;;;;;5.35;3.60;;;;;;;8.36;69.30;99097.44;4924191;29;20038;-86
2023/04/30 02:57:55;;;;;;;6.35;4.35;;;;;;;8.25;69.47;99075.91;4924509;29;20035;-86
2023/04/30 03:00:20;;;;;;;5.93;3.95;;;;;;;8.29;69.52;99098.47;4940556;29;20508;-86
2023/04/30 03:02:46;;;;;;;5.57;3.65;;;;;;;8.34;69.69;99094.19;4924576;29;20506;-86
2023/04/30 03:05:12;;;;;;;4.88;3.80;;;;;;;8.20;69.48;99093.88;4940798;28;20521;-86
2023/04/30 03:07:37;;;;;;;4.90;3.95;;;;;;;8.19;69.73;99093.03;4929357;29;20039;-86
2023/04/30 03:10:03;;;;;;;6.47;3.60;;;;;;;8.17;69.93;99094.38;4931572;29;20043;-86
2023/04/30 03:12:28;;;;;;;3.90;3.20;;;;;;;8.16;69.79;99106.97;4930912;29;20059;-86
2023/04/30 03:14:54;;;;;;;6.28;3.90;;;;;;;8.12;70.11;99103.19;4940635;29;20391;-86
2023/04/30 03:17:19;;;;;;;7.15;3.97;;;;;;;8.16;69.59;99103.50;4939621;29;20553;-86
2023/04/30 03:19:45;;;;;;;5.43;3.80;;;;;;;8.15;69.57;99102.66;4924343;29;20031;-87
2023/04/30 03:22:10;;;;;;;5.30;3.90;;;;;;;8.12;69.67;99105.88;4924489;29;20042;-86
2023/04/30 03:24:36;;;;;;;7.35;4.00;;;;;;;8.02;70.02;99100.44;4924813;29;20067;-87
2023/04/30 03:27:02;;;;;;;5.93;3.90;;;;;;;7.90;70.47;99104.13;4925006;29;20035;-85
2023/04/30 03:29:27;;;;;;;6.00;3.85;;;;;;;7.91;70.72;99099.59;4924800;29;20573;-85
2023/04/30 03:31:53;;;;;;;5.85;3.80;;;;;;;7.92;70.42;99105.75;4928432;29;20027;-85
2023/04/30 03:34:18;;;;;;;7.38;4.03;;;;;;;7.90;70.58;99106.00;4923468;29;20395;-85
2023/04/30 03:36:43;;;;;;;9.40;4.10;;;;;;;7.97;70.46;99121.84;4939806;29;20066;-85
2023/04/30 03:39:10;;;;;;;5.30;3.70;;;;;;;7.90;70.63;99120.19;4923287;29;20474;-85
2023/04/30 03:41:35;;;;;;;7.22;3.85;;;;;;;7.93;70.88;99116.22;4925043;29;20553;-86
2023/04/30 03:44:01;;;;;;;5.78;4.03;;;;;;;7.86;70.63;99116.44;4920002;29;20031;-85
2023/04/30 03:46:26;;;;;;;6.97;4.40;;;;;;;7.83;70.45;99116.94;4923620;29;20031;-85
2023/04/30 03:48:53;;;;;;;10.00;5.28;;;;;;;7.82;70.84;99122.56;4923899;29;20046;-85
2023/04/30 03:51:19;;;;;;;10.23;4.13;;;;;;;7.87;70.40;99130.66;4924553;29;20043;-85
2023/04/30 03:53:45;;;;;;;5.53;3.67;;;;;;;7.87;70.75;99128.75;4924824;29;20095;-86
2023/04/30 03:56:10;;;;;;;6.30;3.88;;;;;;;7.97;70.52;99133.41;4924580;29;20034;-86
2023/04/30 03:58:35;;;;;;;6.88;3.75;;;;;;;8.03;70.03;99135.06;4924158;29;20043;-86
2023/04/30 04:01:01;;;;;;;14.05;4.00;;;;;;;8.04;69.95;99133.19;4924810;29;20091;-86
2023/04/30 04:03:26;;;;;;;5.82;3.47;;;;;;;8.04;70.22;99139.34;4933032;29;20048;-85
2023/04/30 04:05:52;;;;;;;7.90;3.47;;;;;;;8.03;70.77;99153.00;4933853;29;20036;-85
2023/04/30 04:08:17;;;;;;;9.52;3.53;;;;;;;8.11;70.53;99152.53;4933904;29;20036;-85
2023/04/30 04:10:43;;;;;;;7.47;4.13;;;;;;;8.22;69.96;99150.75;4918073;29;20040;-85
2023/04/30 04:13:08;;;;;;;7.57;4.22;;;;;;;8.44;69.58;99154.09;4917146;29;20036;-85
2023/04/30 04:15:34;;;;;;;11.50;4.78;;;;;;;8.60;68.98;99138.91;4918621;29;20032;-86
2023/04/30 04:17:59;;;;;;;10.30;5.30;;;;;;;8.64;69.27;99142.69;4917864;29;20039;-86
2023/04/30 04:20:26;;;;;;;11.45;5.95;;;;;;;8.73;68.83;99155.59;4917479;29;20032;-86
2023/04/30 04:22:51;;;;;;;17.10;5.40;;;;;;;8.64;69.03;99133.81;4918057;29;20087;-86
2023/04/30 04:25:17;;;;;;;8.75;4.85;;;;;;;8.85;68.41;99148.94;4918090;29;20032;-86
2023/04/30 04:27:43;;;;;;;12.18;4.90;;;;;;;8.94;67.60;99145.75;4933164;29;20036;-85
2023/04/30 04:30:09;;;;;;;6.65;4.28;;;;;;;8.96;68.13;99154.34;4917335;29;20047;-86
2023/04/30 04:32:40;;;;;;;9.60;4.25;;;;;;;8.92;68.12;99156.75;4923359;29;20169;-85
2023/04/30 04:35:06;;;;;;;11.23;5.50;;;;;;;8.80;68.87;99151.63;4933695;29;20032;-85
2023/04/30 04:37:32;;;;;;;9.27;4.97;;;;;;;8.76;68.89;99160.44;4901729;29;20080;-85
2023/04/30 04:39:57;;;;;;;9.15;4.53;;;;;;;8.70;68.34;99155.06;4885597;29;20040;-85
2023/04/30 04:42:23;;;;;;;7.57;4.43;;;;;;;8.67;69.13;99165.50;4900565;29;20032;-87
2023/04/30 04:44:48;;;;;;;9.35;5.10;;;;;;;8.66;68.72;99162.00;4885949;29;20099;-85
2023/04/30 04:47:15;;;;;;;6.72;4.68;;;;;;;8.74;68.57;99171.47;4904842;29;20028;-85
2023/04/30 04:49:41;;;;;;;8.73;5.20;;;;;;;8.52;69.30;99168.91;4889195;29;20422;-85
2023/04/30 04:52:06;;;;;;;6.90;5.05;;;;;;;8.63;69.05;99154.50;4905215;29;20044;-86
2023/04/30 04:54:32;;;;;;;8.60;4.82;;;;;;;8.62;69.03;99163.59;4905685;29;20096;-86
2023/04/30 04:56:58;;;;;;;11.75;4.93;;;;;;;8.63;69.31;99156.34;4904656;29;20048;-86
2023/04/30 04:59:23;;;;;;;9.85;5.15;;;;;;;8.74;68.94;99152.66;4888446;29;20040;-86
2023/04/30 05:01:48;;;;;;;9.32;5.65;;;;;;;8.83;68.96;99158.34;4920748;29;20526;-86
2023/04/30 05:04:14;;;;;;;8.88;5.45;;;;;;;8.84;68.94;99157.25;4915363;29;20056;-86
2023/04/30 05:06:41;;;;;;;10.98;5.05;;;;;;;8.97;68.41;99164.84;4889585;29;20047;-86
2023/04/30 05:09:08;;;;;;;9.05;6.15;;;;;;;8.99;69.37;99165.38;4890121;29;20043;-86
2023/04/30 05:11:34;;;;;;;10.02;5.93;;;;;;;9.00;68.41;99160.81;4890410;29;20427;-86
2023/04/30 05:13:59;;;;;;;12.85;6.70;;;;;;;9.08;68.62;99161.09;4905561;29;20503;-85
2023/04/30 05:16:25;;;;;;;10.52;6.18;;;;;;;9.14;68.25;99156.56;4889424;29;20104;-86
2023/04/30 05:18:51;;;;;;;13.48;5.68;;;;;;;9.17;68.08;99166.78;4889016;29;20036;-86
2023/04/30 05:21:16;;;;;;;7.68;5.38;;;;;;;9.08;68.46;99157.63;4890047;29;20067;-88
2023/04/30 05:23:43;;;;;;;13.48;6.05;;;;;;;9.06;68.03;99171.31;4888801;29;20427;-85
2023/04/30 05:26:08;;;;;;;9.20;5.57;;;;;;;9.18;67.76;99172.97;4889358;29;20051;-85
2023/04/30 05:28:34;;;;;;;8.95;5.78;;;;;;;9.20;67.85;99177.00;4888141;29;20044;-86
2023/04/30 05:30:59;;;;;;;10.18;6.10;;;;;;;9.31;67.42;99173.25;4904001;29;20067;-86
2023/04/30 05:33:25;;;;;;;12.15;6.20;;;;;;;9.54;66.47;99165.78;4904831;29;20043;-86
2023/04/30 05:35:50;;;;;;;14.70;6.13;;;;;;;9.74;66.37;99173.06;4905785;29;20427;-86
2023/04/30 05:38:16;;;;;;;7.95;5.32;;;;;;;9.71;66.36;99181.66;4923447;29;20044;-88
2023/04/30 05:40:41;;;;;;;9.80;5.20;;;;;;;9.88;65.92;99173.34;4902914;29;20047;-88
2023/04/30 05:43:07;;;;;;;9.70;4.95;;;;;;;10.09;65.34;99160.72;4904742;29;20044;-87
2023/04/30 05:45:32;;;;;;;12.27;5.20;;;;;;;10.21;64.71;99169.31;4904522;29;20040;-87
2023/04/30 05:47:58;;;;;;;6.57;4.20;;;;;;;10.38;63.08;99174.41;4888244;29;20502;-87
2023/04/30 05:50:23;;;;;;;9.43;4.00;;;;;;;10.44;62.84;99164.47;4903818;29;20043;-87
2023/04/30 05:52:49;;;;;;;5.80;3.72;;;;;;;10.66;61.98;99178.38;4889229;29;20040;-85
2023/04/30 05:55:15;;;;;;;7.13;3.70;;;;;;;10.88;61.35;99158.41;4936056;29;20032;-86
2023/04/30 05:57:40;;;;;;;6.13;3.20;;;;;;;10.98;60.02;99163.75;4918724;29;20126;-86
2023/04/30 06:00:06;;;;;;;4.95;3.80;;;;;;;11.23;59.44;99167.41;4934826;29;20039;-85
2023/04/30 06:02:31;;;;;;;9.18;3.13;;;;;;;11.27;59.36;99165.78;4933470;29;20046;-86
2023/04/30 06:04:57;;;;;;;7.20;4.07;;;;;;;11.50;59.02;99165.06;4925400;29;20042;-86
2023/04/30 06:07:22;;;;;;;4.28;3.40;;;;;;;11.71;57.88;99165.75;4941835;29;20023;-86
2023/04/30 06:09:50;;;;;;;6.15;3.42;;;;;;;11.80;57.14;99157.84;4926647;29;20046;-85
2023/04/30 06:12:16;;;;;;;5.07;3.47;;;;;;;12.03;56.54;99169.84;4918490;29;20050;-87
2023/04/30 06:14:44;;;;;;;6.53;4.15;;;;;;;11.98;57.82;99159.09;4914282;29;20035;-86
2023/04/30 06:17:09;;;;;;;9.88;4.18;;;;;;;12.03;57.45;99155.53;4925752;29;20043;-86
2023/04/30 06:19:37;;;;;;;6.85;3.75;;;;;;;12.19;57.32;99172.41;4925674;29;20039;-88
2023/04/30 06:22:03;;;;;;;5.28;3.47;;;;;;;12.33;56.45;99171.47;4926638;29;20126;-86
2023/04/30 06:24:29;;;;;;;8.02;4.00;;;;;;;12.42;56.33;99163.53;4923219;29;20070;-86
2023/04/30 06:26:54;;;;;;;6.50;4.20;;;;;;;12.62;54.65;99159.81;4909365;29;20065;-86
2023/04/30 06:29:20;;;;;;;6.82;4.10;;;;;;;12.86;54.81;99172.50;4924496;29;20031;-85
2023/04/30 06:31:45;;;;;;;6.47;4.18;;;;;;;12.88;54.74;99149.50;4941508;29;20046;-86
2023/04/30 06:34:11;;;;;;;11.25;4.20;;;;;;;12.84;54.18;99162.00;4932388;29;20035;-88
2023/04/30 06:36:36;;;;;;;6.88;3.85;;;;;;;13.02;54.39;99159.63;4924855;29;20035;-88
2023/04/30 06:39:02;;;;;;;4.57;3.40;;;;;;;13.09;52.90;99155.50;4924617;29;20039;-86
2023/04/30 06:41:27;;;;;;;8.23;3.53;;;;;;;13.21;52.42;99149.63;4928381;29;20047;-86
2023/04/30 06:43:53;;;;;;;7.38;3.65;;;;;;;13.35;52.13;99160.56;4924703;29;20035;-86
2023/04/30 06:46:18;;;;;;;5.03;3.58;;;;;;;13.53;52.37;99154.38;4925103;29;20086;-88
2023/04/30 06:48:44;;;;;;;7.45;3.90;;;;;;;13.73;51.29;99158.63;4926073;29;20050;-85
2023/04/30 06:51:09;;;;;;;7.72;4.75;;;;;;;13.98;50.68;99155.84;4925588;29;20039;-86
2023/04/30 06:53:35;;;;;;;7.03;3.40;;;;;;;14.17;50.39;99162.00;4924865;29;20035;-87
2023/04/30 06:56:00;;;;;;;6.05;3.40;;;;;;;14.31;49.83;99168.25;4940585;29;20086;-87
2023/04/30 06:58:26;;;;;;;4.85;3.25;;;;;;;14.37;49.57;99163.53;4941555;29;20039;-87
2023/04/30 07:00:51;;;;;;;6.55;3.42;;;;;;;14.61;49.63;99165.28;4925047;29;20039;-87
2023/04/30 07:03:17;;;;;;;5.43;3.42;;;;;;;14.72;49.29;99159.38;4924779;29;20058;-86
2023/04/30 07:05:42;;;;;;;6.70;3.72;;;;;;;14.82;49.19;99158.41;4924591;29;20534;-87
2023/04/30 07:08:08;;;;;;;6.68;3.75;;;;;;;15.10;46.40;99171.91;4924516;29;20074;-85
2023/04/30 07:10:33;;;;;;;9.23;3.90;;;;;;;15.22;46.29;99168.69;4925213;29;20070;-87
2023/04/30 07:12:59;;;;;;;5.97;3.58;;;;;;;15.25;45.69;99166.19;4924915;29;20039;-86
2023/04/30 07:15:24;;;;;;;3.90;2.80;;;;;;;15.39;45.27;99159.91;4940868;29;20039;-86
2023/04/30 07:17:50;;;;;;;7.75;3.63;;;;;;;15.44;45.61;99165.22;4940277;29;20039;-87
2023/04/30 07:20:15;;;;;;;5.72;3.40;;;;;;;15.72;45.07;99168.69;4942201;29;20090;-86
2023/04/30 07:22:44;;;;;;;7.57;3.40;;;;;;;15.91;44.69;99171.22;4926146;29;20040;-87
2023/04/30 07:25:11;;;;;;;5.15;3.08;;;;;;;16.01;43.76;99167.47;4939928;29;20039;-86
2023/04/30 07:27:37;;;;;;;5.13;3.42;;;;;;;16.08;43.58;99173.25;4923579;29;20162;-87
2023/04/30 07:30:03;;;;;;;4.68;3.17;;;;;;;16.18;43.22;99173.00;4924194;29;20035;-86
2023/04/30 07:32:29;;;;;;;5.50;3.67;;;;;;;16.23;42.65;99162.00;4924152;29;20059;-88
2023/04/30 07:34:54;;;;;;;4.05;3.13;;;;;;;16.38;42.29;99157.28;4924182;29;20042;-86
2023/04/30 07:37:20;;;;;;;4.25;3.00;;;;;;;16.45;42.90;99154.91;4913323;29;20070;-85
2023/04/30 07:39:46;;;;;;;5.38;2.83;;;;;;;16.62;42.05;99151.47;4924405;29;20126;-86
2023/04/30 07:42:11;;;;;;;6.68;3.53;;;;;;;16.74;41.88;99160.63;4926102;29;20054;-87
2023/04/30 07:44:37;;;;;;;7.50;3.20;;;;;;;16.80;41.17;99165.94;4925103;29;20106;-86
2023/04/30 07:47:02;;;;;;;7.53;3.45;;;;;;;16.96;40.47;99153.53;4924135;29;20046;-86
2023/04/30 07:49:28;;;;;;;3.50;3.00;;;;;;;17.07;40.51;99152.13;4923811;29;20485;-87
2023/04/30 07:51:53;;;;;;;6.90;3.30;;;;;;;17.19;40.43;99161.59;4925084;29;20050;-87
2023/04/30 07:54:19;;;;;;;5.28;3.58;;;;;;;17.15;40.67;99158.69;4924406;29;20035;-87
2023/04/30 07:56:44;;;;;;;6.40;3.22;;;;;;;17.25;40.88;99150.22;4923298;29;20051;-87
2023/04/30 07:59:10;;;;;;;6.70;3.00;;;;;;;17.26;40.19;99154.53;4940154;29;20043;-87
2023/04/30 08:01:35;;;;;;;6.80;3.97;;;;;;;17.45;39.42;99153.44;4923616;29;20047;-87
2023/04/30 08:04:01;;;;;;;5.65;3.47;;;;;;;17.51;40.03;99147.50;4923921;29;20059;-87
2023/04/30 08:06:26;;;;;;;7.47;3.70;;;;;;;17.46;40.47;99149.63;4939973;29;20039;-87
2023/04/30 08:08:52;;;;;;;7.70;3.35;;;;;;;17.26;40.87;99151.03;4939505;29;20520;-87
2023/04/30 08:11:17;;;;;;;4.78;3.35;;;;;;;17.37;40.74;99147.69;4939177;29;20035;-87
2023/04/30 08:13:43;;;;;;;4.57;2.75;;;;;;;17.34;40.73;99150.22;4923041;29;20046;-87
2023/04/30 08:16:09;;;;;;;4.47;2.80;;;;;;;17.60;40.58;99155.69;4923664;29;20122;-87
2023/04/30 08:18:36;;;;;;;5.53;2.78;;;;;;;17.41;40.97;99139.69;4924068;29;20509;-88
2023/04/30 08:21:01;;;;;;;4.07;2.80;;;;;;;17.57;40.42;99148.97;4929875;28;20457;-86
2023/04/30 08:23:27;;;;;;;5.85;2.75;;;;;;;17.67;40.16;99147.84;4930535;29;20074;-86
2023/04/30 08:25:53;;;;;;;3.72;2.55;;;;;;;17.69;39.59;99148.31;4921165;29;20054;-86
2023/04/30 08:28:19;;;;;;;4.50;2.65;;;;;;;17.68;38.00;99140.47;4945150;29;20038;-87
2023/04/30 08:30:44;;;;;;;2.70;2.08;;;;;;;17.68;38.51;99146.72;4921458;29;20046;-88
2023/04/30 08:33:10;;;;;;;3.83;2.50;;;;;;;17.79;38.25;99144.47;4915401;29;20035;-88
2023/04/30 08:35:35;;;;;;;3.55;2.30;;;;;;;17.73;38.39;99134.88;4946115;29;20031;-87
2023/04/30 08:38:01;;;;;;;3.30;2.20;;;;;;;17.83;39.43;99142.75;4930430;29;20035;-88
2023/04/30 08:40:26;;;;;;;3.85;2.35;;;;;;;17.94;38.85;99141.28;4929687;28;20042;-87
2023/04/30 08:43:19;;;;;;;2.97;2.25;;;;;;;17.76;38.80;99150.56;4929901;29;20043;-87
2023/04/30 08:45:44;;;;;;;4.15;2.33;;;;;;;17.82;39.52;99149.25;4928197;29;20027;-88
2023/04/30 08:48:15;;;;;;;5.80;2.70;;;;;;;17.77;38.01;99136.63;4929785;29;20046;-88
2023/04/30 08:50:44;;;;;;;4.72;2.45;;;;;;;17.87;37.81;99157.31;4929880;29;20094;-87
2023/04/30 08:53:10;;;;;;;5.07;2.70;;;;;;;17.78;38.83;99154.56;4946118;29;20521;-87
2023/04/30 08:55:35;;;;;;;3.97;2.17;;;;;;;17.81;37.94;99146.88;4930171;29;20070;-87
2023/04/30 08:58:01;;;;;;;3.65;2.42;;;;;;;17.86;38.14;99146.75;4930146;29;20493;-88
2023/04/30 09:00:26;;;;;;;4.32;2.28;;;;;;;18.03;38.19;99149.41;4929662;29;20043;-88
2023/04/30 09:02:52;;;;;;;4.30;2.38;;;;;;;18.05;37.45;99151.84;4946059;29;20031;-88
2023/04/30 09:05:17;;;;;;;8.43;2.97;;;;;;;17.99;38.49;99140.28;4930264;29;20042;-87
2023/04/30 09:07:43;;;;;;;4.47;2.30;;;;;;;18.07;37.80;99139.47;4930028;29;20038;-88
2023/04/30 09:10:16;;;;;;;4.50;2.38;;;;;;;18.17;37.88;99132.91;4929701;29;20143;-87
2023/04/30 09:12:44;;;;;;;4.07;2.40;;;;;;;18.24;37.58;99135.13;4930681;29;20047;-88
2023/04/30 09:15:11;;;;;;;7.50;3.15;;;;;;;18.23;37.88;99123.41;4929480;29;20486;-87
2023/04/30 09:17:36;;;;;;;6.03;2.63;;;;;;;18.18;38.73;99118.94;4930244;29;20031;-87
2023/04/30 09:20:22;;;;;;;3.85;2.47;;;;;;;18.23;37.84;99120.69;4929296;29;20101;-88
2023/04/30 09:22:47;;;;;;;4.53;2.50;;;;;;;18.47;37.92;99124.75;4930024;29;20042;-88
2023/04/30 09:25:13;;;;;;;2.83;2.13;;;;;;;18.57;38.41;99116.22;4929248;28;20035;-87
2023/04/30 09:27:38;;;;;;;3.92;2.40;;;;;;;18.66;37.37;99116.22;4929458;29;20493;-87
2023/04/30 09:30:04;;;;;;;2.47;2.13;;;;;;;18.82;37.33;99127.38;4929686;29;20040;-87
2023/04/30 09:32:30;;;;;;;6.55;2.35;;;;;;;18.93;37.45;99121.22;4927854;29;20043;-87
2023/04/30 09:34:55;;;;;;;4.07;2.22;;;;;;;19.13;37.07;99121.56;4942698;29;20399;-87
2023/04/30 09:37:21;;;;;;;3.47;2.08;;;;;;;19.22;36.74;99124.25;4927625;29;20045;-88
2023/04/30 09:39:52;;;;;;;4.20;2.00;;;;;;;19.12;36.79;99112.56;4926248;29;20038;-86
2023/04/30 09:42:18;;;;;;;3.42;2.05;;;;;;;19.31;35.91;99109.38;4926614;29;20034;-85
2023/04/30 09:44:44;;;;;;;5.63;2.40;;;;;;;19.35;36.80;99110.31;4926498;29;20031;-86
2023/04/30 09:47:17;;;;;;;6.13;2.40;;;;;;;19.49;36.69;99106.53;4925861;29;20035;-86
2023/04/30 09:49:46;;;;;;;7.38;2.60;;;;;;;19.48;36.44;99102.97;4942119;29;20035;-87
2023/04/30 09:52:11;;;;;;;3.78;2.00;;;;;;;19.55;35.85;99107.91;4926868;29;20035;-87
2023/04/30 09:54:37;;;;;;;4.57;2.17;;;;;;;19.64;36.62;99091.44;4926290;29;20027;-87
2023/04/30 09:57:02;;;;;;;3.75;1.80;;;;;;;19.66;35.81;99109.09;4926598;29;20421;-87
2023/04/30 09:59:34;;;;;;;3.65;1.95;;;;;;;19.70;36.14;99099.13;4926364;29;20109;-86
2023/04/30 10:02:00;;;;;;;4.25;2.00;;;;;;;19.86;35.52;99106.69;4926780;29;20043;-88
2023/04/30 10:04:33;;;;;;;5.25;2.00;;;;;;;19.87;35.23;99114.53;4926316;29;20047;-87
2023/04/30 10:07:00;;;;;;;2.75;2.08;;;;;;;19.82;34.97;99112.03;4926450;29;20083;-87
2023/04/30 10:09:29;;;;;;;2.92;1.83;;;;;;;19.72;34.97;99107.00;4925237;29;20494;-87
2023/04/30 10:11:58;;;;;;;5.43;2.13;;;;;;;19.65;35.53;99104.78;4930620;29;20114;-85
2023/04/30 10:14:24;;;;;;;3.80;1.70;;;;;;;19.59;34.75;99098.72;4936853;29;20126;-87
2023/04/30 10:17:17;;;;;;;3.17;1.70;;;;;;;19.52;35.29;99086.72;4936298;29;20482;-89
2023/04/30 10:19:45;;;;;;;2.53;1.63;;;;;;;19.53;35.28;99100.06;4951537;29;20497;-89
2023/04/30 10:22:11;;;;;;;2.95;1.85;;;;;;;19.43;34.87;99094.22;4929240;29;20043;-88
2023/04/30 10:24:36;;;;;;;2.50;1.65;;;;;;;19.48;35.56;99096.72;4935577;28;20031;-89
2023/04/30 10:27:02;;;;;;;2.20;1.45;;;;;;;19.38;35.07;99078.81;4937793;29;20055;-89
2023/04/30 10:29:27;;;;;;;4.00;2.00;;;;;;;19.37;36.26;99080.75;4932636;29;20126;-88
2023/04/30 10:31:53;;;;;;;2.80;1.80;;;;;;;19.56;36.17;99087.66;4929928;29;20046;-89
2023/04/30 10:34:37;;;;;;;5.40;2.08;;;;;;;19.79;35.70;99077.19;4933519;29;20063;-89
2023/04/30 10:37:29;;;;;;;3.67;1.95;;;;;;;19.94;35.58;99089.41;4950500;29;20437;-88
2023/04/30 10:39:56;;;;;;;2.38;1.42;;;;;;;19.99;34.75;99070.06;4949667;29;20097;-89
2023/04/30 10:42:21;;;;;;;2.70;1.70;;;;;;;20.15;35.68;99076.47;4927485;28;20139;-89
2023/04/30 10:44:47;;;;;;;3.33;1.98;;;;;;;20.21;34.80;99074.28;4921839;29;20031;-89
2023/04/30 10:47:13;;;;;;;2.80;1.85;;;;;;;20.26;34.96;99071.34;4939556;29;20043;-89
2023/04/30 10:49:41;;;;;;;2.70;1.88;;;;;;;20.57;34.41;99070.00;4934582;29;20031;-89
2023/04/30 10:52:09;;;;;;;3.50;2.08;;;;;;;20.58;34.66;99060.66;4928287;29;20110;-89
2023/04/30 10:54:35;;;;;;;4.47;2.00;;;;;;;20.57;34.98;99065.31;4921756;29;20042;-89
2023/04/30 10:57:16;;;;;;;3.95;1.88;;;;;;;20.61;35.45;99067.38;4927847;29;20051;-89
2023/04/30 10:59:50;;;;;;;3.88;2.10;;;;;;;20.65;34.94;99058.16;4926367;29;20039;-87
2023/04/30 11:02:17;;;;;;;2.67;1.67;;;;;;;20.77;34.26;99068.28;4940623;29;20031;-88
2023/04/30 11:05:06;;;;;;;2.22;1.75;;;;;;;20.58;33.03;99077.09;4925399;29;20043;-88
2023/04/30 11:07:31;;;;;;;2.65;1.60;;;;;;;20.57;33.28;99075.47;4941380;29;20023;-89
2023/04/30 11:09:57;;;;;;;2.25;1.60;;;;;;;20.54;33.85;99059.72;4925545;29;20066;-88
2023/04/30 11:12:28;;;;;;;3.05;1.85;;;;;;;20.65;34.04;99069.13;4921481;29;20035;-88
2023/04/30 11:15:00;;;;;;;2.35;1.67;;;;;;;20.69;33.14;99070.03;4916245;29;20027;-88
2023/04/30 11:17:26;;;;;;;4.18;1.98;;;;;;;20.76;33.58;99066.72;4929400;29;20033;-87
2023/04/30 11:19:52;;;;;;;7.30;2.80;;;;;;;20.70;34.16;99057.94;4925038;29;20519;-87
2023/04/30 11:22:21;;;;;;;2.47;1.73;;;;;;;20.83;32.15;99066.13;4936788;29;20491;-88
2023/04/30 11:24:51;;;;;;;7.85;2.65;;;;;;;20.97;33.09;99061.88;4940194;29;20039;-88
2023/04/30 11:27:23;;;;;;;3.50;2.13;;;;;;;20.95;32.23;99057.88;4957956;29;20116;-88
2023/04/30 11:29:50;;;;;;;3.20;1.70;;;;;;;20.91;31.66;99063.25;4925216;29;20029;-87
2023/04/30 11:32:17;;;;;;;2.03;1.45;;;;;;;20.92;31.35;99053.13;4905782;29;20486;-87
2023/04/30 11:34:43;;;;;;;2.45;1.90;;;;;;;20.89;32.63;99054.59;4920941;29;20032;-87
2023/04/30 11:37:14;;;;;;;3.60;2.03;;;;;;;20.82;32.43;99048.91;4936183;29;20439;-88